Time;durP1;ratioP1;P1;durP2;ratioP2;P2;SDS_P1;SDS_P2;PMS_P1;PMS_P2;Temp;Humidity;BMP_temperature;BMP_pressure;BME280_temperature;BME280_humidity;BME280_pressure;Samples;Min_cycle;Max_cycle;Signal;HPM_P1;HPM_P2
2022/05/19 00:01:50;;;;;;;7.53;4.55;;;;;;;17.14;60.20;100257.25;10384636;28;20053;-64
2022/05/19 00:06:52;;;;;;;10.35;4.28;;;;;;;17.13;60.67;100259.03;10387445;28;20853;-64
2022/05/19 00:11:56;;;;;;;7.38;4.13;;;;;;;17.23;60.73;100259.97;10388245;28;20245;-64
2022/05/19 00:16:58;;;;;;;7.90;4.00;;;;;;;17.17;60.38;100262.25;10386579;28;20124;-64
2022/05/19 00:22:00;;;;;;;7.00;3.92;;;;;;;17.11;60.34;100255.69;10388778;28;20084;-64
2022/05/19 00:27:02;;;;;;;6.25;3.70;;;;;;;17.11;60.71;100258.31;10380295;28;20085;-64
2022/05/19 00:32:04;;;;;;;7.90;4.13;;;;;;;17.07;60.32;100253.41;10383508;28;20050;-64
2022/05/19 00:37:06;;;;;;;6.90;4.68;;;;;;;16.89;60.77;100253.94;10382652;28;20111;-64
2022/05/19 00:47:51;;;;;;;8.35;4.88;;;;;;;16.23;62.77;100252.19;10387258;28;20690;-62
2022/05/19 00:53:03;;;;;;;6.90;4.53;;;;;;;16.29;62.46;100244.72;10385846;28;20462;-62
2022/05/19 00:58:13;;;;;;;6.22;4.40;;;;;;;16.24;62.40;100242.47;10385990;28;20052;-63
2022/05/19 01:03:17;;;;;;;8.73;4.47;;;;;;;16.37;62.12;100245.81;10386507;28;20136;-62
2022/05/19 01:08:42;;;;;;;7.22;4.63;;;;;;;16.42;62.21;100251.56;10384897;28;20058;-62
2022/05/19 01:13:45;;;;;;;6.47;4.55;;;;;;;16.52;61.56;100252.56;10387933;28;20141;-64
2022/05/19 01:18:47;;;;;;;6.05;3.92;;;;;;;16.54;61.62;100261.19;10384121;28;20579;-63
2022/05/19 01:24:05;;;;;;;8.82;4.47;;;;;;;16.39;61.61;100266.78;10386626;28;20115;-62
2022/05/19 01:29:09;;;;;;;6.50;3.95;;;;;;;16.30;61.24;100260.47;10386312;28;20127;-62
2022/05/19 01:34:12;;;;;;;7.07;4.18;;;;;;;16.22;61.58;100257.56;10385923;28;20108;-64
2022/05/19 01:39:17;;;;;;;6.00;4.60;;;;;;;15.99;61.86;100258.50;10381993;28;20526;-64
2022/05/19 01:44:47;;;;;;;9.45;4.70;;;;;;;15.90;61.85;100252.13;10385804;28;20139;-64
2022/05/19 01:50:07;;;;;;;7.82;4.63;;;;;;;15.88;62.19;100240.84;10382510;28;20140;-64
2022/05/19 01:55:30;;;;;;;6.35;4.63;;;;;;;15.54;63.34;100247.03;10384027;28;20587;-63
2022/05/19 02:00:32;;;;;;;8.13;4.22;;;;;;;15.66;63.13;100245.25;10382084;28;20054;-64
2022/05/19 02:05:46;;;;;;;10.65;5.57;;;;;;;15.58;63.44;100248.47;10391634;28;20522;-64
2022/05/19 02:10:52;;;;;;;8.02;4.85;;;;;;;15.57;63.40;100241.50;10390210;28;20498;-62
2022/05/19 02:15:55;;;;;;;7.45;4.75;;;;;;;15.56;62.96;100242.47;10390609;28;20053;-63
2022/05/19 02:21:00;;;;;;;7.72;4.53;;;;;;;15.63;63.19;100241.06;10390804;28;20144;-62
2022/05/19 02:26:03;;;;;;;8.15;5.05;;;;;;;15.54;63.06;100239.09;10391334;28;20154;-64
2022/05/19 02:31:05;;;;;;;6.80;4.50;;;;;;;15.63;63.16;100238.44;10387959;28;20358;-64
2022/05/19 02:36:09;;;;;;;6.65;5.10;;;;;;;15.57;63.04;100241.50;10387936;28;20054;-64
2022/05/19 02:41:11;;;;;;;7.70;5.32;;;;;;;15.53;63.09;100237.41;10390645;28;20081;-64
2022/05/19 02:46:13;;;;;;;7.25;5.20;;;;;;;15.39;63.42;100222.63;10390446;28;20132;-62
2022/05/19 02:51:14;;;;;;;9.02;5.00;;;;;;;15.32;63.42;100210.88;10389447;28;20140;-63
2022/05/19 02:56:16;;;;;;;9.45;5.47;;;;;;;15.29;63.57;100215.50;10389842;28;20111;-63
2022/05/19 03:01:18;;;;;;;7.28;4.55;;;;;;;15.13;63.83;100217.59;10390062;28;20568;-63
2022/05/19 03:06:20;;;;;;;9.35;5.90;;;;;;;15.22;63.29;100207.25;10385217;28;20057;-63
2022/05/19 03:11:22;;;;;;;10.93;5.25;;;;;;;15.17;63.89;100208.50;10382334;28;20141;-63
2022/05/19 03:16:23;;;;;;;9.38;4.68;;;;;;;15.23;63.72;100215.97;10383878;28;20084;-63
2022/05/19 03:21:25;;;;;;;7.20;4.40;;;;;;;15.35;63.28;100213.25;10384099;28;20421;-62
2022/05/19 03:26:27;;;;;;;7.32;4.75;;;;;;;15.38;63.28;100220.09;10383191;28;20049;-63
2022/05/19 03:31:29;;;;;;;9.88;5.32;;;;;;;15.37;63.15;100218.41;10382851;28;20140;-63
2022/05/19 03:36:31;;;;;;;10.27;5.00;;;;;;;15.20;63.13;100226.75;10381539;28;20054;-63
2022/05/19 03:41:33;;;;;;;8.60;5.53;;;;;;;15.10;63.57;100221.28;10381268;28;20166;-63
2022/05/19 03:46:35;;;;;;;9.80;6.05;;;;;;;15.03;63.87;100225.34;10383612;28;20739;-63
2022/05/19 03:51:37;;;;;;;8.98;4.97;;;;;;;15.07;63.95;100232.06;10381891;28;20140;-63
2022/05/19 03:56:39;;;;;;;6.03;4.90;;;;;;;15.26;63.26;100231.56;10382153;28;20586;-64
2022/05/19 04:01:41;;;;;;;6.95;4.88;;;;;;;15.24;63.44;100242.22;10381297;28;20138;-63
2022/05/19 04:06:42;;;;;;;9.68;4.43;;;;;;;15.28;63.19;100235.78;10383555;28;20148;-63
2022/05/19 04:11:44;;;;;;;6.97;4.75;;;;;;;15.32;63.23;100237.22;10387570;28;20119;-65
2022/05/19 04:16:49;;;;;;;5.82;4.40;;;;;;;15.50;62.99;100247.34;10388965;28;20132;-63
2022/05/19 04:21:51;;;;;;;9.25;4.95;;;;;;;15.80;62.11;100258.22;10386225;28;20159;-65
2022/05/19 04:26:53;;;;;;;10.93;5.47;;;;;;;15.98;61.32;100246.25;10389791;28;20088;-64
2022/05/19 04:31:55;;;;;;;7.65;5.63;;;;;;;16.05;61.59;100250.13;10388568;28;20922;-65
2022/05/19 04:36:56;;;;;;;6.30;5.10;;;;;;;16.72;60.47;100240.41;10388710;28;20168;-63
2022/05/19 04:41:58;;;;;;;6.95;4.85;;;;;;;17.80;58.09;100239.28;10388526;28;20128;-63
2022/05/19 04:47:00;;;;;;;9.15;4.88;;;;;;;18.56;55.58;100237.97;10388944;28;20042;-63
2022/05/19 04:52:02;;;;;;;7.80;4.63;;;;;;;19.00;54.68;100241.97;10387159;28;20211;-65
2022/05/19 04:57:04;;;;;;;7.70;4.45;;;;;;;19.22;54.29;100234.63;10389040;28;20386;-65
2022/05/19 05:02:08;;;;;;;6.22;4.28;;;;;;;19.66;52.42;100240.34;10388460;28;20143;-64
2022/05/19 05:07:10;;;;;;;5.78;3.72;;;;;;;20.42;51.05;100240.13;10385933;28;20049;-64
2022/05/19 05:12:12;;;;;;;6.65;3.55;;;;;;;20.10;51.44;100237.03;10387813;28;20285;-63
2022/05/19 05:17:15;;;;;;;6.72;4.15;;;;;;;20.15;51.61;100237.47;10386776;28;20188;-64
2022/05/19 05:22:17;;;;;;;8.45;4.90;;;;;;;20.16;52.05;100239.13;10385949;28;20073;-63
2022/05/19 05:27:18;;;;;;;6.75;4.05;;;;;;;19.96;52.70;100240.16;10385877;28;20127;-65
2022/05/19 05:32:20;;;;;;;5.00;3.78;;;;;;;19.74;52.76;100251.09;10387516;28;20089;-64
2022/05/19 05:37:22;;;;;;;8.77;4.20;;;;;;;19.84;52.54;100262.53;10385573;28;20471;-64
2022/05/19 05:42:24;;;;;;;7.25;4.07;;;;;;;20.00;52.30;100255.66;10383786;28;20330;-63
2022/05/19 05:47:26;;;;;;;8.55;4.22;;;;;;;20.17;51.88;100246.13;10383487;28;20052;-63
2022/05/19 05:52:33;;;;;;;8.25;4.30;;;;;;;20.15;51.80;100245.44;10384482;28;20065;-63
2022/05/19 05:57:35;;;;;;;8.55;4.28;;;;;;;20.39;51.02;100242.25;10384914;28;20466;-64
2022/05/19 06:02:38;;;;;;;8.30;4.20;;;;;;;20.28;51.65;100261.84;10386002;28;20477;-64
2022/05/19 06:07:43;;;;;;;6.78;4.30;;;;;;;20.56;50.73;100258.25;10385508;28;20315;-63
2022/05/19 06:12:45;;;;;;;5.97;4.28;;;;;;;20.83;50.55;100255.63;10385031;28;20085;-65
2022/05/19 06:17:46;;;;;;;9.98;3.88;;;;;;;20.88;50.25;100245.38;10385470;28;20126;-63
2022/05/19 06:22:48;;;;;;;10.02;4.50;;;;;;;21.19;49.42;100255.66;10384932;28;20059;-63
2022/05/19 06:27:50;;;;;;;6.32;3.83;;;;;;;21.47;48.59;100249.31;10384700;28;20129;-63
2022/05/19 06:32:52;;;;;;;9.23;3.92;;;;;;;21.74;48.16;100251.88;10383713;28;20128;-65
2022/05/19 06:37:55;;;;;;;7.82;4.32;;;;;;;21.88;47.22;100260.09;10384389;28;20054;-64
2022/05/19 06:42:57;;;;;;;9.48;4.63;;;;;;;21.80;46.85;100251.25;10382875;28;20183;-64
2022/05/19 06:47:59;;;;;;;10.77;4.47;;;;;;;22.03;46.91;100236.44;10375229;28;20549;-65
2022/05/19 06:53:03;;;;;;;7.88;4.15;;;;;;;22.23;46.38;100235.19;10382909;28;20055;-65
2022/05/19 06:58:05;;;;;;;6.10;4.00;;;;;;;22.51;45.46;100227.84;10380112;28;20057;-65
2022/05/19 07:03:07;;;;;;;6.32;4.10;;;;;;;22.72;45.35;100209.56;10379943;28;21029;-65
2022/05/19 07:08:09;;;;;;;6.88;3.97;;;;;;;22.91;44.92;100214.66;10380142;28;20049;-65
2022/05/19 07:13:12;;;;;;;7.95;4.00;;;;;;;23.08;44.10;100215.53;10382210;28;20526;-65
2022/05/19 07:18:13;;;;;;;7.68;3.58;;;;;;;22.87;43.89;100225.81;10380310;28;20136;-65
2022/05/19 07:23:24;;;;;;;9.38;3.83;;;;;;;22.87;44.60;100221.34;10378105;28;20677;-65
2022/05/19 07:28:26;;;;;;;5.78;3.83;;;;;;;23.24;43.85;100213.72;10380642;28;20091;-65
2022/05/19 07:33:28;;;;;;;9.02;3.80;;;;;;;24.29;42.13;100211.78;10381364;28;20141;-63
2022/05/19 07:38:30;;;;;;;7.07;3.42;;;;;;;25.21;40.31;100192.22;10379766;28;20053;-65
2022/05/19 07:43:37;;;;;;;11.98;3.58;;;;;;;26.28;38.47;100187.34;10382781;28;20088;-65
2022/05/19 07:48:39;;;;;;;15.00;3.35;;;;;;;26.66;37.52;100194.28;10388642;28;20049;-64
2022/05/19 07:53:41;;;;;;;5.75;3.05;;;;;;;27.28;37.46;100185.66;10388791;28;20571;-67
2022/05/19 07:58:44;;;;;;;5.22;3.20;;;;;;;27.72;35.20;100169.25;10381560;28;20563;-68
2022/05/19 08:03:45;;;;;;;9.70;3.20;;;;;;;27.29;36.82;100172.03;10377930;28;20134;-67
2022/05/19 08:08:48;;;;;;;5.32;3.10;;;;;;;28.17;35.97;100179.50;10386395;28;20906;-68
2022/05/19 08:19:10;;;;;;;9.05;2.50;;;;;;;27.91;34.92;100174.78;10388825;28;20124;-68
2022/05/19 08:24:12;;;;;;;7.82;2.60;;;;;;;28.49;33.85;100165.41;10383784;28;20084;-70
2022/05/19 08:29:15;;;;;;;5.68;2.60;;;;;;;28.87;32.35;100163.03;10383594;28;20055;-70
2022/05/19 08:34:17;;;;;;;5.85;2.50;;;;;;;28.78;33.29;100162.38;10378002;28;21418;-70
2022/05/19 08:39:18;;;;;;;4.32;2.40;;;;;;;28.79;32.51;100160.50;10370498;28;20184;-70
2022/05/19 08:44:26;;;;;;;6.82;2.38;;;;;;;29.33;31.92;100153.16;10383697;28;20144;-70
2022/05/19 08:50:05;;;;;;;4.87;2.20;;;;;;;29.05;31.87;100155.22;10384662;28;20077;-70
2022/05/19 08:55:13;;;;;;;5.65;2.42;;;;;;;28.07;33.17;100158.34;10383782;28;20487;-68
2022/05/19 09:00:21;;;;;;;6.03;2.22;;;;;;;28.14;33.70;100151.13;10377301;28;20122;-68
2022/05/19 09:06:04;;;;;;;11.65;2.40;;;;;;;28.30;33.71;100147.31;10385744;28;20442;-68
2022/05/19 09:11:15;;;;;;;5.70;2.47;;;;;;;28.01;33.71;100147.56;10384441;28;20513;-69
2022/05/19 09:16:22;;;;;;;5.68;2.10;;;;;;;27.65;33.04;100145.03;10384421;28;20184;-70
2022/05/19 09:21:26;;;;;;;7.38;2.20;;;;;;;27.60;33.88;100146.66;10382214;28;20116;-69
2022/05/19 09:26:56;;;;;;;5.97;2.20;;;;;;;27.52;33.90;100144.09;10378845;28;20077;-68
2022/05/19 09:32:15;;;;;;;3.97;1.90;;;;;;;27.37;35.54;100153.09;10383675;28;20052;-68
2022/05/19 09:37:37;;;;;;;4.53;2.10;;;;;;;28.21;32.47;100140.41;10385439;28;20100;-67
2022/05/19 09:42:54;;;;;;;5.53;2.20;;;;;;;28.60;31.37;100132.53;10382470;28;20107;-68
2022/05/19 09:48:00;;;;;;;10.05;2.10;;;;;;;29.23;31.41;100119.59;10380736;28;20049;-68
2022/05/19 09:53:07;;;;;;;7.00;1.80;;;;;;;29.53;31.47;100123.53;10384259;28;20125;-67
2022/05/19 09:58:17;;;;;;;4.30;1.80;;;;;;;28.87;29.89;100118.09;10381168;28;20132;-68
2022/05/19 10:03:29;;;;;;;3.97;1.77;;;;;;;28.36;30.71;100116.09;10381854;28;20163;-69
2022/05/19 10:08:42;;;;;;;4.40;1.80;;;;;;;28.90;30.53;100114.19;10381886;28;20057;-69
2022/05/19 10:13:51;;;;;;;5.35;2.08;;;;;;;29.25;30.50;100101.34;10384713;28;20131;-69
2022/05/19 10:19:38;;;;;;;5.95;1.90;;;;;;;29.81;29.91;100102.53;10384149;28;20056;-69
2022/05/19 10:25:22;;;;;;;7.43;2.42;;;;;;;29.88;29.93;100097.94;10379194;28;20846;-69
2022/05/19 10:31:04;;;;;;;5.82;2.47;;;;;;;30.16;29.60;100094.97;10367264;28;20123;-69
2022/05/19 10:36:50;;;;;;;7.20;2.42;;;;;;;29.82;31.14;100090.72;10376029;28;20130;-68
2022/05/19 10:42:03;;;;;;;6.18;2.20;;;;;;;29.59;29.91;100076.88;10378937;28;20053;-69
2022/05/19 10:47:26;;;;;;;6.32;2.22;;;;;;;29.19;31.58;100069.84;10382483;28;20092;-68
2022/05/19 10:52:53;;;;;;;7.10;2.30;;;;;;;29.00;32.47;100072.34;10381750;28;20068;-68
2022/05/19 10:58:27;;;;;;;5.72;2.13;;;;;;;29.21;30.21;100046.22;10381580;28;20056;-68
2022/05/19 11:03:38;;;;;;;6.63;2.30;;;;;;;29.24;30.61;100048.50;10380664;28;20133;-66
2022/05/19 11:08:55;;;;;;;9.93;2.50;;;;;;;29.49;32.55;100041.44;10376127;28;20590;-67
2022/05/19 11:14:16;;;;;;;8.32;2.63;;;;;;;29.52;32.27;100047.22;10379170;28;20541;-67
2022/05/19 11:19:31;;;;;;;10.40;2.50;;;;;;;29.45;31.09;100035.66;10383158;28;20164;-67
2022/05/19 11:30:18;;;;;;;6.63;2.45;;;;;;;29.36;32.13;100019.91;10389483;28;20061;-67
2022/05/19 11:35:20;;;;;;;;;;;;;;;29.05;31.51;100015.97;10386690;28;20120;-67
2022/05/19 11:41:03;;;;;;;7.78;2.50;;;;;;;29.70;32.49;100012.34;10389239;28;19921;-68
2022/05/19 11:46:16;;;;;;;7.57;2.80;;;;;;;29.39;32.29;100014.09;10380656;28;20154;-69
2022/05/19 11:57:08;;;;;;;6.45;2.72;;;;;;;29.43;32.12;100001.88;10387149;28;20532;-66
2022/05/19 12:02:11;;;;;;;7.00;2.60;;;;;;;29.98;32.26;100005.81;10383391;28;20041;-68
2022/05/19 12:07:24;;;;;;;11.93;3.05;;;;;;;30.25;30.87;99986.59;10384109;28;20046;-68
2022/05/19 12:12:32;;;;;;;6.00;2.47;;;;;;;30.13;31.38;99982.91;10390759;28;20057;-67
2022/05/19 12:17:41;;;;;;;9.18;2.70;;;;;;;29.95;31.79;99985.50;10379777;28;20160;-67
2022/05/19 12:22:43;;;;;;;5.28;2.20;;;;;;;29.99;31.84;99989.41;10389713;28;20658;-68
2022/05/19 12:27:57;;;;;;;6.85;2.40;;;;;;;29.96;32.39;99989.88;10389256;28;20110;-68
2022/05/19 12:33:25;;;;;;;6.45;2.70;;;;;;;30.07;31.86;99977.56;10387666;28;20172;-68
2022/05/19 12:38:36;;;;;;;7.40;2.43;;;;;;;29.95;31.98;99982.00;10384281;28;20063;-68
2022/05/19 12:43:45;;;;;;;6.80;2.95;;;;;;;29.91;32.05;99984.25;10388153;28;20064;-68
2022/05/19 12:48:50;;;;;;;5.82;2.30;;;;;;;30.25;32.36;99992.00;10386731;28;20143;-68
2022/05/19 12:53:53;;;;;;;7.13;2.20;;;;;;;30.37;31.19;99984.84;10387547;28;20498;-68
2022/05/19 12:59:07;;;;;;;5.93;2.40;;;;;;;30.56;31.33;99975.78;10385617;28;20420;-68
2022/05/19 13:04:45;;;;;;;6.38;2.20;;;;;;;30.88;30.72;99964.94;10383808;28;20125;-68
2022/05/19 13:09:55;;;;;;;7.78;2.40;;;;;;;30.76;30.62;99981.03;10386634;28;20057;-68
2022/05/19 13:15:02;;;;;;;9.55;2.60;;;;;;;30.86;30.45;99957.06;10387170;28;20054;-68
2022/05/19 13:20:12;;;;;;;8.20;2.70;;;;;;;30.87;30.61;99942.50;10385402;28;20055;-67
2022/05/19 13:25:44;;;;;;;7.28;3.00;;;;;;;30.95;30.44;99938.66;10378870;28;20072;-67
2022/05/19 13:30:46;;;;;;;5.80;2.80;;;;;;;30.88;30.74;99932.53;10384377;28;20159;-67
2022/05/19 13:36:05;;;;;;;5.40;2.63;;;;;;;31.03;30.56;99925.75;10382641;28;20147;-66
2022/05/19 13:41:11;;;;;;;11.82;2.53;;;;;;;31.01;30.88;99927.84;10385148;28;20337;-67
2022/05/19 13:46:18;;;;;;;7.20;2.75;;;;;;;30.82;31.87;99925.31;10384189;28;20041;-67
2022/05/19 13:51:26;;;;;;;5.55;2.60;;;;;;;30.67;33.12;99921.09;10385336;28;20156;-67
2022/05/19 13:56:40;;;;;;;7.35;2.83;;;;;;;30.69;31.87;99912.75;10384558;28;20085;-67
2022/05/19 14:01:45;;;;;;;5.10;2.70;;;;;;;31.01;32.09;99902.69;10383231;28;20077;-67
2022/05/19 14:06:48;;;;;;;9.77;3.65;;;;;;;30.99;32.35;99902.09;10380740;28;20034;-67
2022/05/19 14:12:27;;;;;;;6.43;2.75;;;;;;;30.65;32.18;99904.28;10384864;28;20057;-68
2022/05/19 14:17:34;;;;;;;8.90;3.23;;;;;;;30.78;32.44;99908.75;10383806;28;20593;-67
2022/05/19 14:22:37;;;;;;;10.57;2.97;;;;;;;31.09;32.57;99911.31;10384868;28;20458;-67
2022/05/19 14:27:39;;;;;;;6.30;3.08;;;;;;;31.08;31.86;99915.09;10383653;28;20045;-67
2022/05/19 14:32:52;;;;;;;8.43;3.08;;;;;;;31.11;31.46;99900.31;10382534;28;20136;-67
2022/05/19 14:38:01;;;;;;;7.78;2.90;;;;;;;31.18;32.25;99880.28;10382968;28;20093;-67
2022/05/19 14:43:08;;;;;;;5.00;2.80;;;;;;;31.24;32.75;99884.78;10383911;28;20141;-67
2022/05/19 14:48:25;;;;;;;7.68;2.65;;;;;;;30.97;31.72;99867.22;10382276;28;20134;-66
2022/05/19 14:53:29;;;;;;;9.77;3.20;;;;;;;30.92;32.06;99880.53;10382404;28;20081;-66
2022/05/19 14:59:01;;;;;;;8.65;3.05;;;;;;;30.74;32.51;99874.31;10381172;28;20053;-67
2022/05/19 15:04:03;;;;;;;7.97;3.17;;;;;;;30.79;33.10;99896.03;10369603;28;20537;-67
2022/05/19 15:09:05;;;;;;;7.20;2.80;;;;;;;30.55;33.06;99901.28;10374132;28;20528;-67
2022/05/19 15:14:07;;;;;;;7.40;3.22;;;;;;;30.25;33.34;99913.75;10361472;28;20080;-67
2022/05/19 15:19:17;;;;;;;5.60;3.00;;;;;;;29.99;33.76;99948.16;10382647;28;20089;-67
2022/05/19 15:24:20;;;;;;;17.02;2.50;;;;;;;28.50;31.05;99957.19;10367080;28;20491;-68
2022/05/19 15:29:22;;;;;;;16.00;3.25;;;;;;;27.17;32.09;99921.19;10375818;28;20585;-67
2022/05/19 15:34:24;;;;;;;15.13;2.20;;;;;;;26.31;33.72;99918.84;10378834;28;20045;-67
2022/05/19 15:39:27;;;;;;;9.88;2.22;;;;;;;25.51;35.82;99978.94;10376446;28;20107;-68
2022/05/19 15:44:28;;;;;;;12.85;1.95;;;;;;;24.95;38.06;100016.00;10381544;28;20239;-69
2022/05/19 15:49:31;;;;;;;12.00;1.88;;;;;;;24.18;42.20;100072.38;10381061;28;20131;-67
2022/05/19 15:54:33;;;;;;;9.07;2.40;;;;;;;23.36;46.41;100158.16;10379283;28;20313;-66
2022/05/19 15:59:39;;;;;;;9.00;2.60;;;;;;;22.34;50.73;100196.78;10379831;28;20252;-68
2022/05/19 16:04:40;;;;;;;9.20;2.65;;;;;;;21.75;51.72;100195.78;10371576;28;20132;-68
2022/05/19 16:09:42;;;;;;;8.10;2.65;;;;;;;21.56;52.92;100217.28;10383799;28;20220;-68
2022/05/19 16:14:44;;;;;;;5.80;2.60;;;;;;;21.32;54.56;100240.19;10383888;28;20056;-68
2022/05/19 16:19:46;;;;;;;7.65;3.10;;;;;;;20.92;54.66;100289.31;10383882;28;20048;-68
2022/05/19 16:24:49;;;;;;;6.20;2.85;;;;;;;20.97;56.75;100329.56;10380065;28;20053;-68
2022/05/19 16:29:51;;;;;;;9.45;3.17;;;;;;;20.84;56.19;100331.75;10387468;28;20596;-68
2022/05/19 16:34:53;;;;;;;6.78;2.90;;;;;;;20.91;58.04;100338.13;10385432;28;20136;-67
2022/05/19 16:39:57;;;;;;;11.57;3.33;;;;;;;20.93;59.15;100328.19;10387148;28;20156;-68
2022/05/19 16:44:59;;;;;;;11.82;3.50;;;;;;;21.02;59.32;100305.19;10379791;28;20559;-68
2022/05/19 16:50:01;;;;;;;9.07;3.75;;;;;;;20.88;59.82;100324.31;10385998;28;20045;-69
2022/05/19 17:00:29;;;;;;;9.82;3.33;;;;;;;20.26;61.11;100306.31;10385259;28;20041;-68
2022/05/19 17:05:33;;;;;;;9.88;3.45;;;;;;;20.21;61.37;100306.75;10385684;28;20057;-68
2022/05/19 17:10:43;;;;;;;11.15;3.33;;;;;;;20.08;61.68;100294.78;10381643;28;20053;-68
2022/05/19 17:15:46;;;;;;;6.35;3.30;;;;;;;19.90;61.55;100286.72;10384569;28;20368;-68
2022/05/19 17:20:49;;;;;;;8.60;3.47;;;;;;;20.27;62.45;100286.75;10383665;28;20423;-68
2022/05/19 17:25:52;;;;;;;13.68;3.60;;;;;;;20.48;62.30;100263.44;10400373;28;20132;-68
2022/05/19 17:30:54;;;;;;;14.65;3.75;;;;;;;20.52;62.48;100267.50;10383223;28;20085;-68
2022/05/19 17:35:56;;;;;;;6.03;3.13;;;;;;;20.68;62.93;100261.59;10383065;28;20076;-68
2022/05/19 17:40:58;;;;;;;9.02;3.80;;;;;;;20.70;61.63;100249.00;10384661;28;20438;-68
2022/05/19 17:46:06;;;;;;;7.60;3.58;;;;;;;20.96;61.61;100247.28;10377535;28;20124;-68
2022/05/19 17:51:09;;;;;;;8.55;3.13;;;;;;;21.38;60.87;100245.72;10380300;28;20155;-68
2022/05/19 17:56:16;;;;;;;17.83;3.72;;;;;;;21.71;60.70;100254.81;10379650;28;20085;-68
2022/05/19 18:01:18;;;;;;;10.45;3.20;;;;;;;21.72;60.43;100264.50;10380267;28;20119;-69
2022/05/19 18:06:21;;;;;;;7.80;2.80;;;;;;;21.88;60.26;100280.59;10382264;28;20136;-69
2022/05/19 18:11:22;;;;;;;10.20;3.22;;;;;;;21.76;59.66;100277.31;10377377;28;20159;-69
2022/05/19 18:21:45;;;;;;;11.05;3.00;;;;;;;21.41;59.69;100263.22;10377643;28;20304;-68
2022/05/19 18:26:48;;;;;;;11.52;3.72;;;;;;;21.29;59.63;100267.06;10373442;28;20477;-67
2022/05/19 18:31:50;;;;;;;5.97;3.50;;;;;;;21.24;59.50;100261.34;10370961;28;20362;-68
2022/05/19 18:36:51;;;;;;;8.68;3.10;;;;;;;21.12;59.89;100281.19;10374922;28;20057;-68
2022/05/19 18:47:14;;;;;;;7.68;3.15;;;;;;;20.89;60.38;100289.59;10379695;28;20056;-67
2022/05/19 18:52:16;;;;;;;8.73;2.92;;;;;;;20.84;61.03;100288.34;10379085;28;20089;-68
2022/05/19 18:57:19;;;;;;;8.70;3.03;;;;;;;20.56;61.15;100284.81;10383464;28;20085;-67
2022/05/19 19:02:23;;;;;;;7.53;3.22;;;;;;;20.56;61.82;100292.78;10380520;28;20413;-68
2022/05/19 19:07:25;;;;;;;14.65;3.72;;;;;;;20.62;61.66;100328.63;10377818;28;20498;-67
2022/05/19 19:12:26;;;;;;;9.23;3.17;;;;;;;20.48;61.82;100329.88;10381201;28;20061;-67
2022/05/19 19:17:29;;;;;;;7.50;3.30;;;;;;;20.33;62.05;100307.44;10381682;28;20077;-68
2022/05/19 19:22:32;;;;;;;8.32;3.33;;;;;;;20.31;61.82;100306.75;10380844;28;20100;-69
2022/05/19 19:27:35;;;;;;;5.97;3.03;;;;;;;20.31;61.82;100304.09;10382066;28;20053;-68
2022/05/19 19:32:38;;;;;;;9.52;3.20;;;;;;;20.34;62.08;100310.94;10383107;28;20108;-68
2022/05/19 19:37:41;;;;;;;9.50;3.70;;;;;;;20.19;62.00;100329.16;10377245;28;20057;-67
2022/05/19 19:42:45;;;;;;;9.68;4.03;;;;;;;20.07;62.00;100333.75;10387907;28;20053;-66
2022/05/19 19:47:48;;;;;;;6.40;3.58;;;;;;;19.79;62.39;100342.56;10390297;28;20048;-68
2022/05/19 19:52:50;;;;;;;8.38;3.33;;;;;;;19.74;62.80;100342.16;10389416;28;20085;-68
2022/05/19 19:57:52;;;;;;;8.77;3.47;;;;;;;19.71;63.18;100349.53;10390154;28;20100;-66
2022/05/19 20:02:55;;;;;;;9.32;4.22;;;;;;;19.68;63.19;100344.53;10386814;28;20155;-67
2022/05/19 20:07:58;;;;;;;7.13;4.55;;;;;;;19.49;63.11;100342.69;10388757;28;20413;-67
2022/05/19 20:13:01;;;;;;;9.25;4.45;;;;;;;19.28;63.65;100336.66;10386987;28;20386;-64
2022/05/19 20:18:03;;;;;;;9.80;4.35;;;;;;;19.19;64.09;100332.19;10386233;28;20516;-66
2022/05/19 20:23:05;;;;;;;11.65;4.30;;;;;;;19.15;63.88;100342.25;10387708;28;20516;-64
2022/05/19 20:28:08;;;;;;;11.43;3.90;;;;;;;19.06;64.34;100355.44;10389365;28;20115;-66
2022/05/19 20:33:10;;;;;;;8.80;4.18;;;;;;;19.01;64.30;100369.06;10386974;28;20049;-65
2022/05/19 20:38:11;;;;;;;10.20;4.35;;;;;;;19.02;64.40;100360.19;10388343;28;20132;-64
2022/05/19 20:43:13;;;;;;;12.35;6.15;;;;;;;18.78;64.49;100364.97;10388222;28;20072;-64
2022/05/19 20:48:15;;;;;;;10.00;5.68;;;;;;;18.59;65.06;100362.22;10389508;28;20049;-64
2022/05/19 20:53:17;;;;;;;8.48;4.45;;;;;;;18.43;65.42;100367.13;10384198;28;20398;-64
2022/05/19 20:58:18;;;;;;;9.80;4.90;;;;;;;18.35;65.56;100375.75;10387892;28;20570;-64
2022/05/19 21:03:24;;;;;;;8.02;5.10;;;;;;;18.18;66.08;100381.59;10388115;28;20073;-66
2022/05/19 21:08:25;;;;;;;7.80;4.20;;;;;;;18.11;66.00;100404.25;10386735;28;20827;-66
2022/05/19 21:13:28;;;;;;;13.80;5.10;;;;;;;18.14;65.81;100400.50;10385380;28;20153;-64
2022/05/19 21:18:33;;;;;;;8.32;4.82;;;;;;;17.93;66.46;100403.16;10385025;28;20132;-64
2022/05/19 21:28:55;;;;;;;10.40;5.32;;;;;;;17.95;66.50;100408.31;10385946;28;20392;-66
2022/05/19 21:33:57;;;;;;;8.65;4.65;;;;;;;18.01;66.51;100416.59;10386668;28;20050;-66
2022/05/19 21:38:59;;;;;;;9.52;4.82;;;;;;;18.01;66.13;100413.09;10383876;28;20092;-66
2022/05/19 21:44:02;;;;;;;7.82;4.50;;;;;;;18.04;65.91;100410.16;10368437;28;20064;-66
2022/05/19 21:49:04;;;;;;;8.90;5.55;;;;;;;18.06;65.88;100410.88;10369485;28;20571;-66
2022/05/19 21:59:29;;;;;;;117.28;11.27;;;;;;;18.07;65.49;100409.94;10384400;28;20111;-66
2022/05/19 22:04:31;;;;;;;13.95;5.10;;;;;;;17.93;66.06;100410.25;10383959;28;20091;-66
2022/05/19 22:09:32;;;;;;;13.45;7.20;;;;;;;17.97;66.31;100403.72;10383051;28;20140;-66
2022/05/19 22:14:34;;;;;;;362.77;22.77;;;;;;;18.06;66.25;100403.78;10367814;28;20129;-66
2022/05/19 22:19:36;;;;;;;46.00;9.15;;;;;;;18.09;66.79;100406.19;10384719;28;20385;-66
2022/05/19 22:24:38;;;;;;;148.43;13.88;;;;;;;18.15;66.49;100403.03;10384824;28;20429;-66
2022/05/19 22:29:46;;;;;;;17.92;6.72;;;;;;;18.20;66.35;100410.63;10382156;28;20969;-66
2022/05/19 22:34:48;;;;;;;43.97;7.70;;;;;;;18.17;66.43;100409.03;10384440;28;20049;-64
2022/05/19 22:39:50;;;;;;;16.58;8.27;;;;;;;18.23;66.29;100415.66;10382206;28;20168;-65
2022/05/19 22:44:51;;;;;;;37.05;9.15;;;;;;;18.06;66.41;100422.31;10385349;28;20080;-65
2022/05/19 22:49:55;;;;;;;38.05;7.95;;;;;;;18.06;66.40;100438.19;10376442;28;20458;-66
2022/05/19 22:54:57;;;;;;;16.60;7.28;;;;;;;18.10;66.49;100430.84;10379507;28;20041;-66
2022/05/19 22:59:59;;;;;;;16.70;7.68;;;;;;;18.10;65.90;100436.13;10380589;28;20099;-66
2022/05/19 23:05:01;;;;;;;14.65;9.55;;;;;;;18.06;65.98;100440.00;10381624;28;20506;-66
2022/05/19 23:10:04;;;;;;;11.50;7.40;;;;;;;17.97;66.14;100441.63;10381588;28;20140;-66
2022/05/19 23:15:08;;;;;;;27.48;11.15;;;;;;;17.90;66.15;100458.09;10381263;28;20136;-65
2022/05/19 23:20:17;;;;;;;19.10;11.82;;;;;;;17.91;66.33;100462.44;10382539;28;20125;-66
2022/05/19 23:25:21;;;;;;;16.85;8.82;;;;;;;17.88;66.38;100437.06;10380958;28;20100;-65
2022/05/19 23:30:23;;;;;;;17.90;9.23;;;;;;;17.87;66.43;100451.28;10381376;28;20053;-64
2022/05/19 23:35:25;;;;;;;53.85;11.90;;;;;;;17.85;66.20;100453.22;10381478;28;20065;-64
2022/05/19 23:40:27;;;;;;;25.13;11.18;;;;;;;17.82;66.47;100448.16;10380567;28;20964;-64
2022/05/19 23:45:29;;;;;;;16.60;10.07;;;;;;;17.87;66.48;100450.44;10381543;28;20057;-64
2022/05/19 23:50:31;;;;;;;20.52;9.65;;;;;;;17.99;66.07;100418.53;10379340;28;20483;-66
2022/05/19 23:55:33;;;;;;;36.97;12.75;;;;;;;17.84;66.32;100410.03;10381019;28;20203;-65
